Main page
METAR-TAF:

METAR-TAF

Airports :

Stanley, Falkland Islands

RAF Mount Pleasant

latitude: 51-49S, longitude: 058-27W, elevation: 74 m

Current weather observation

The report was made 1 hour and 6 minutes ago, at 17:50 UTC
Wind 15 kt from the West
Temperature 5°C
Humidity 93%
Pressure 986 hPa
Visibility 10 km or more
Few clouds at a height of 1800 ft
Broken clouds at a height of 2800 ft

METAR: EGYP 231750Z 27015KT 9999 FEW018 BKN028 05/04 Q0986 BLU NOSIG

Time: 15:56 (18:56 UTC)

Forecast

The report was made 2 hours and 27 minutes ago, at 16:29 UTC
Forecast valid from 23 at 18 UTC to 24 at 12 UTC
Wind 23 kt from the West with gusts up to 33 kt
Visibility 10 km or more
Scattered clouds at a height of 3000 ft
Probability 30% :
Temporary
from 23 at 22 UTC to 24 at 02 UTC
Scattered clouds at a height of 1400 ft
Becoming
from 24 at 09 UTC to 24 at 12 UTC
Wind 15 kt from the Northwest

TAF: EGYP 231629Z 2318/2412 27023G33KT 9999 SCT030 PROB30 TEMPO 2322/2402 SCT014 BECMG 2409/2412 31015KT

Weather observations and forecasts of more than 4000 airports (METAR and TAF reports).

The available stations are represented by yellow and red dots on the map.

Hover mouse over dot to see the name of the station.

Then click to see weather observations and forecasts.

To change the map : click on the green buttons with a black cross to zoom in, on the green button with a dash to zoom out, or on the green arrows for adjacent maps.


METAR-TAF: